Time;durP1;ratioP1;P1;durP2;ratioP2;P2;SDS_P1;SDS_P2;PMS_P1;PMS_P2;Temp;Humidity;BMP_temperature;BMP_pressure;BME280_temperature;BME280_humidity;BME280_pressure;Samples;Min_cycle;Max_cycle;Signal;HPM_P1;HPM_P2
2021/10/24 00:02:08;;;;;;;1.90;1.60;;;22.10;53.80;;;;;;5054576;28;20542;-78
2021/10/24 00:04:33;;;;;;;1.90;1.60;;;22.10;53.80;;;;;;5067390;28;20438;-78
2021/10/24 00:07:00;;;;;;;2.37;1.90;;;22.10;53.80;;;;;;5065779;28;20457;-79
2021/10/24 00:09:26;;;;;;;2.70;1.73;;;22.10;53.80;;;;;;5054408;28;20179;-78
2021/10/24 00:11:52;;;;;;;2.10;1.73;;;22.10;53.80;;;;;;5061279;28;20417;-78
2021/10/24 00:14:18;;;;;;;2.60;1.90;;;22.10;53.80;;;;;;5062886;28;20413;-78
2021/10/24 00:16:44;;;;;;;2.13;1.47;;;22.10;53.80;;;;;;5054609;28;20448;-78
2021/10/24 00:19:10;;;;;;;2.93;1.90;;;22.10;53.80;;;;;;5071410;28;20234;-78
2021/10/24 00:21:36;;;;;;;2.17;1.77;;;22.10;53.80;;;;;;5084417;28;20408;-78
2021/10/24 00:24:02;;;;;;;3.53;1.80;;;22.10;53.80;;;;;;5074461;28;20173;-78
2021/10/24 00:26:29;;;;;;;1.53;1.43;;;22.10;53.80;;;;;;5091807;28;20162;-78
2021/10/24 00:28:54;;;;;;;2.47;1.90;;;22.10;53.80;;;;;;5075226;28;20490;-78
2021/10/24 00:31:20;;;;;;;2.63;1.90;;;22.10;53.80;;;;;;5053740;28;20417;-78
2021/10/24 00:33:46;;;;;;;2.10;1.63;;;22.10;53.80;;;;;;5053746;28;20174;-78
2021/10/24 00:39:34;;;;;;;2.40;1.87;;;22.10;53.80;;;;;;5071316;28;20386;-78
2021/10/24 00:42:00;;;;;;;1.77;1.50;;;22.10;53.90;;;;;;5053733;28;20421;-78
2021/10/24 00:44:28;;;;;;;2.60;1.80;;;22.00;53.90;;;;;;5053976;28;20175;-78
2021/10/24 00:46:56;;;;;;;1.90;1.60;;;22.10;53.90;;;;;;5068574;28;20428;-78
2021/10/24 00:49:23;;;;;;;2.50;1.60;;;22.00;53.90;;;;;;5074534;28;20492;-78
2021/10/24 00:51:50;;;;;;;2.50;1.70;;;22.10;53.90;;;;;;5074108;28;20432;-79
2021/10/24 00:54:19;;;;;;;1.90;1.70;;;22.00;53.90;;;;;;5091035;28;20454;-78
2021/10/24 00:56:48;;;;;;;2.33;1.33;;;22.10;53.90;;;;;;5086457;28;20405;-79
2021/10/24 00:59:15;;;;;;;2.10;1.70;;;22.00;53.90;;;;;;5053518;28;20449;-79
2021/10/24 01:01:41;;;;;;;3.10;1.60;;;22.00;53.90;;;;;;5054507;28;20428;-78
2021/10/24 01:04:07;;;;;;;3.03;2.00;;;22.00;53.90;;;;;;5053789;28;20418;-78
2021/10/24 01:06:35;;;;;;;1.90;1.60;;;22.00;53.90;;;;;;5071216;28;20253;-78
2021/10/24 01:09:05;;;;;;;2.23;1.70;;;22.00;53.90;;;;;;5087708;28;20880;-78
2021/10/24 01:11:30;;;;;;;1.87;1.40;;;22.00;53.90;;;;;;5073426;28;20442;-78
2021/10/24 01:13:57;;;;;;;1.80;1.43;;;22.00;53.90;;;;;;5073538;28;20423;-78
2021/10/24 01:16:23;;;;;;;2.13;1.93;;;22.00;53.90;;;;;;5073690;28;20170;-78
2021/10/24 01:18:49;;;;;;;2.80;1.70;;;22.00;53.90;;;;;;5071431;28;20471;-78
2021/10/24 01:21:15;;;;;;;2.30;1.60;;;22.00;53.90;;;;;;5090870;28;20408;-78
2021/10/24 01:23:41;;;;;;;2.53;1.97;;;22.00;53.90;;;;;;5091238;28;20176;-78
2021/10/24 01:26:13;;;;;;;2.43;1.73;;;22.00;53.90;;;;;;5075261;28;20499;-78
2021/10/24 01:28:39;;;;;;;1.70;1.50;;;22.00;54.50;;;;;;5077821;28;20422;-78
2021/10/24 01:31:07;;;;;;;2.43;1.50;;;22.00;54.00;;;;;;5087508;28;20738;-78
2021/10/24 01:33:33;;;;;;;2.13;1.67;;;22.00;54.00;;;;;;5057333;28;20175;-78
2021/10/24 01:36:07;;;;;;;2.33;1.90;;;22.00;54.00;;;;;;5082024;28;20428;-78
2021/10/24 01:38:34;;;;;;;2.40;1.80;;;22.00;54.00;;;;;;5082716;28;20459;-78
2021/10/24 01:41:01;;;;;;;1.90;1.53;;;22.00;54.00;;;;;;5074524;28;20475;-78
2021/10/24 01:43:28;;;;;;;1.50;1.40;;;22.00;54.00;;;;;;5040624;28;20413;-79
2021/10/24 01:45:55;;;;;;;2.03;1.73;;;22.00;54.00;;;;;;5074790;28;20440;-78
2021/10/24 01:48:22;;;;;;;1.97;1.53;;;22.00;54.00;;;;;;5056645;28;20413;-78
2021/10/24 01:50:50;;;;;;;3.50;1.97;;;22.00;54.00;;;;;;5074632;28;20413;-78
2021/10/24 01:53:26;;;;;;;1.87;1.57;;;22.00;54.00;;;;;;5074787;28;20417;-78
2021/10/24 01:55:52;;;;;;;1.80;1.50;;;22.00;54.00;;;;;;5057163;28;20753;-78
2021/10/24 01:58:18;;;;;;;2.10;1.80;;;22.00;54.00;;;;;;5074299;28;20464;-78
2021/10/24 02:00:45;;;;;;;2.33;1.77;;;22.00;54.00;;;;;;5056673;28;20914;-78
2021/10/24 02:03:12;;;;;;;2.20;1.50;;;22.00;54.00;;;;;;5055647;28;20417;-78
2021/10/24 02:05:39;;;;;;;1.70;1.60;;;21.90;53.90;;;;;;5073127;28;20425;-78
2021/10/24 02:08:07;;;;;;;1.33;1.23;;;22.00;54.00;;;;;;5072854;28;20433;-79
2021/10/24 02:10:34;;;;;;;2.10;1.80;;;22.00;54.00;;;;;;5073346;28;20418;-78
2021/10/24 02:13:00;;;;;;;1.50;1.37;;;22.00;54.00;;;;;;5071020;28;20452;-79
2021/10/24 02:15:26;;;;;;;1.73;1.50;;;22.00;54.00;;;;;;5071833;28;20509;-79
2021/10/24 02:17:52;;;;;;;1.63;1.50;;;22.00;54.00;;;;;;5054689;28;20481;-79
2021/10/24 02:20:17;;;;;;;2.00;1.53;;;21.90;53.90;;;;;;5054167;28;20270;-79
2021/10/24 02:22:44;;;;;;;1.80;1.60;;;21.90;54.00;;;;;;5063562;28;20183;-78
2021/10/24 02:25:10;;;;;;;2.13;1.93;;;21.90;54.00;;;;;;5076772;28;20159;-79
2021/10/24 02:27:38;;;;;;;2.50;2.20;;;21.90;54.00;;;;;;5073861;28;20401;-78
2021/10/24 02:30:08;;;;;;;2.00;1.60;;;21.90;54.00;;;;;;5074630;28;20754;-78
2021/10/24 02:32:34;;;;;;;3.53;2.07;;;21.90;54.00;;;;;;5058670;28;20421;-79
2021/10/24 02:35:00;;;;;;;1.80;1.43;;;21.90;54.00;;;;;;5065060;28;20417;-78
2021/10/24 02:37:26;;;;;;;2.17;1.90;;;21.90;54.00;;;;;;5091411;28;20439;-79
2021/10/24 02:43:14;;;;;;;2.63;1.80;;;22.00;54.00;;;;;;5051625;28;20468;-79
2021/10/24 02:45:40;;;;;;;2.67;1.83;;;21.90;54.10;;;;;;5066531;28;20523;-79
2021/10/24 02:48:07;;;;;;;2.40;2.03;;;21.90;54.10;;;;;;5073711;28;20193;-79
2021/10/24 02:50:33;;;;;;;3.20;1.90;;;21.90;54.10;;;;;;5057766;28;20185;-79
2021/10/24 02:52:58;;;;;;;1.80;1.63;;;21.90;54.10;;;;;;5054102;28;20441;-79
2021/10/24 02:55:24;;;;;;;2.03;1.57;;;21.90;54.00;;;;;;5053889;28;20175;-79
2021/10/24 03:01:12;;;;;;;2.50;1.70;;;21.90;54.00;;;;;;5071569;28;20376;-79
2021/10/24 03:03:38;;;;;;;2.37;1.97;;;21.90;54.10;;;;;;5054306;28;20442;-78
2021/10/24 03:06:04;;;;;;;4.80;1.77;;;21.90;54.10;;;;;;5058974;28;20189;-78
2021/10/24 03:08:30;;;;;;;2.83;1.90;;;21.90;54.10;;;;;;5059959;28;20426;-78
2021/10/24 03:10:56;;;;;;;2.10;1.90;;;21.90;54.10;;;;;;5054958;28;20187;-78
2021/10/24 03:13:22;;;;;;;2.13;1.90;;;21.90;54.10;;;;;;5055102;28;20452;-79
2021/10/24 03:15:48;;;;;;;2.07;1.53;;;21.90;54.00;;;;;;5055649;28;20186;-78
2021/10/24 03:18:14;;;;;;;1.60;1.50;;;21.90;54.00;;;;;;5072683;28;20449;-78
2021/10/24 03:20:40;;;;;;;2.47;1.53;;;21.90;54.00;;;;;;5038909;28;20249;-78
2021/10/24 03:23:05;;;;;;;2.67;1.90;;;21.90;54.00;;;;;;5054948;28;20456;-79
2021/10/24 03:25:31;;;;;;;1.70;1.43;;;21.90;54.00;;;;;;5060988;28;20424;-78
2021/10/24 03:27:57;;;;;;;1.70;1.60;;;21.90;54.00;;;;;;5074961;28;20265;-78
2021/10/24 03:30:23;;;;;;;1.90;1.60;;;21.90;54.00;;;;;;5072704;28;20213;-78
2021/10/24 03:32:49;;;;;;;1.73;1.60;;;21.90;54.00;;;;;;5073513;28;20437;-79
2021/10/24 03:35:15;;;;;;;2.57;2.37;;;21.90;54.00;;;;;;5079818;28;20175;-78
2021/10/24 03:41:03;;;;;;;2.60;2.00;;;21.90;54.00;;;;;;5073512;28;20383;-78
2021/10/24 03:46:51;;;;;;;2.83;1.90;;;21.80;54.00;;;;;;5089269;28;20220;-78
2021/10/24 03:49:17;;;;;;;2.20;1.70;;;21.80;54.00;;;;;;5081233;28;20513;-79
2021/10/24 03:51:42;;;;;;;1.70;1.60;;;21.80;54.00;;;;;;5081054;28;20222;-79
2021/10/24 03:54:08;;;;;;;2.20;2.00;;;21.80;54.00;;;;;;5078778;28;20241;-79
2021/10/24 03:56:34;;;;;;;2.20;1.60;;;21.80;54.00;;;;;;5059059;28;20247;-79
2021/10/24 03:59:02;;;;;;;2.30;2.10;;;21.80;54.00;;;;;;5062538;28;20194;-79
2021/10/24 04:01:28;;;;;;;2.50;2.20;;;21.80;54.00;;;;;;5079362;28;20186;-79
2021/10/24 04:03:54;;;;;;;1.93;1.73;;;21.90;54.10;;;;;;5064243;28;20413;-79
2021/10/24 04:06:19;;;;;;;3.13;2.57;;;21.80;54.00;;;;;;5077467;28;20190;-79
2021/10/24 04:08:45;;;;;;;2.30;1.93;;;21.80;54.00;;;;;;5057461;28;20175;-78
2021/10/24 04:11:11;;;;;;;2.43;1.73;;;21.80;54.00;;;;;;5079590;28;20174;-79
2021/10/24 04:13:36;;;;;;;2.20;1.90;;;21.80;54.00;;;;;;5081785;28;20217;-79
2021/10/24 04:16:02;;;;;;;2.10;1.90;;;21.80;54.00;;;;;;5064273;28;20189;-79
2021/10/24 04:18:28;;;;;;;2.47;2.27;;;21.80;54.00;;;;;;5062095;28;20202;-78
2021/10/24 04:20:54;;;;;;;3.00;2.13;;;21.80;54.00;;;;;;5060975;28;20625;-79
2021/10/24 04:23:20;;;;;;;2.33;2.00;;;21.80;54.00;;;;;;5078244;28;20168;-79
2021/10/24 04:25:46;;;;;;;2.97;2.00;;;21.80;54.00;;;;;;5065197;28;20405;-79
2021/10/24 04:28:12;;;;;;;1.87;1.73;;;21.80;54.00;;;;;;5062950;28;20477;-79
2021/10/24 04:30:39;;;;;;;2.90;1.47;;;21.80;54.00;;;;;;5063998;28;20418;-79
2021/10/24 04:33:04;;;;;;;3.00;2.10;;;21.80;54.00;;;;;;5063004;28;20459;-79
2021/10/24 04:35:30;;;;;;;1.80;1.60;;;21.80;54.00;;;;;;5061535;28;20422;-79
2021/10/24 04:37:56;;;;;;;2.07;1.87;;;21.80;54.00;;;;;;5059495;28;20226;-79
2021/10/24 04:40:21;;;;;;;2.20;1.57;;;21.80;53.90;;;;;;5053960;28;20262;-79
2021/10/24 04:42:47;;;;;;;1.87;1.60;;;21.90;54.00;;;;;;5066408;28;20211;-79
2021/10/24 04:45:13;;;;;;;1.90;1.70;;;21.90;54.00;;;;;;5064522;28;20162;-79
2021/10/24 04:47:39;;;;;;;2.03;1.83;;;21.90;53.90;;;;;;5064615;28;20262;-79
2021/10/24 04:50:06;;;;;;;3.20;2.13;;;21.90;53.90;;;;;;5065909;28;20192;-79
2021/10/24 04:52:32;;;;;;;2.23;1.93;;;21.90;53.90;;;;;;5064449;28;20464;-79
2021/10/24 04:54:58;;;;;;;2.30;2.10;;;21.90;53.80;;;;;;5049470;28;20404;-79
2021/10/24 04:57:23;;;;;;;2.40;2.10;;;21.90;53.80;;;;;;5063182;28;20420;-79
2021/10/24 04:59:49;;;;;;;2.40;1.73;;;21.90;53.80;;;;;;5079203;28;20198;-79
2021/10/24 05:02:15;;;;;;;1.73;1.63;;;22.00;54.40;;;;;;5068385;28;20173;-79
2021/10/24 05:04:40;;;;;;;1.90;1.60;;;22.00;53.80;;;;;;5070232;28;20191;-79
2021/10/24 05:07:06;;;;;;;2.17;1.90;;;22.00;53.80;;;;;;5070840;28;20174;-79
2021/10/24 05:09:32;;;;;;;2.13;1.90;;;22.00;53.80;;;;;;5068687;28;20610;-79
2021/10/24 05:11:58;;;;;;;2.17;1.97;;;22.00;53.70;;;;;;5088606;28;20217;-79
2021/10/24 05:14:23;;;;;;;2.00;1.80;;;22.00;53.70;;;;;;5086211;28;20194;-79
2021/10/24 05:16:49;;;;;;;2.73;2.00;;;22.00;53.70;;;;;;5065624;28;20182;-79
2021/10/24 05:19:15;;;;;;;1.83;1.70;;;22.00;53.70;;;;;;5070107;28;20285;-79
2021/10/24 05:25:04;;;;;;;2.40;1.67;;;22.10;53.70;;;;;;5080611;28;20940;-78
2021/10/24 05:27:30;;;;;;;1.83;1.63;;;22.00;53.70;;;;;;5068831;28;20424;-79
2021/10/24 05:29:55;;;;;;;2.37;2.10;;;22.00;53.70;;;;;;5071036;28;20436;-79
2021/10/24 05:32:21;;;;;;;2.70;2.50;;;22.00;54.20;;;;;;5086996;28;20255;-79
2021/10/24 05:34:47;;;;;;;2.40;1.90;;;22.00;53.60;;;;;;5089130;28;20631;-79
2021/10/24 05:37:13;;;;;;;2.53;2.00;;;22.00;53.60;;;;;;5088855;28;20213;-79
2021/10/24 05:39:38;;;;;;;2.00;1.60;;;22.00;53.60;;;;;;5068718;28;20238;-79
2021/10/24 05:42:04;;;;;;;2.10;1.87;;;22.10;53.70;;;;;;5072734;28;20174;-79
2021/10/24 05:44:30;;;;;;;2.30;1.60;;;22.10;53.60;;;;;;5070111;28;20210;-79
2021/10/24 05:46:56;;;;;;;1.90;1.70;;;22.00;53.50;;;;;;5071200;28;20182;-79
2021/10/24 05:49:23;;;;;;;1.90;1.70;;;22.00;53.60;;;;;;5065226;28;20418;-79
2021/10/24 05:51:49;;;;;;;2.00;1.80;;;22.10;53.60;;;;;;5056566;28;20206;-79
2021/10/24 05:54:14;;;;;;;1.87;1.73;;;22.00;53.60;;;;;;5074121;28;20409;-78
2021/10/24 05:56:40;;;;;;;2.30;2.10;;;22.00;53.50;;;;;;5073067;28;20435;-78
2021/10/24 05:59:06;;;;;;;1.70;1.60;;;22.00;53.50;;;;;;5073946;28;20233;-78
2021/10/24 06:01:32;;;;;;;1.90;1.50;;;22.00;53.50;;;;;;5056233;28;20430;-77
2021/10/24 06:03:59;;;;;;;2.40;1.67;;;22.00;53.50;;;;;;5056429;28;20243;-78
2021/10/24 06:06:25;;;;;;;2.37;2.17;;;22.00;53.50;;;;;;5056002;28;20789;-78
2021/10/24 06:08:51;;;;;;;2.40;1.80;;;22.00;53.50;;;;;;5055777;28;20413;-78
2021/10/24 06:11:20;;;;;;;2.13;1.80;;;22.10;53.60;;;;;;5055896;28;20193;-79
2021/10/24 06:13:47;;;;;;;2.20;1.87;;;22.10;53.60;;;;;;5072401;28;20751;-79
2021/10/24 06:16:13;;;;;;;2.10;1.90;;;22.10;53.60;;;;;;5074221;28;20414;-78
2021/10/24 06:18:40;;;;;;;2.47;2.00;;;22.10;53.60;;;;;;5055170;28;20461;-79
2021/10/24 06:21:06;;;;;;;2.90;1.70;;;22.10;53.60;;;;;;5073235;28;20394;-79
2021/10/24 06:23:32;;;;;;;2.60;1.60;;;22.10;53.50;;;;;;5073022;28;20425;-78
2021/10/24 06:25:58;;;;;;;1.90;1.70;;;22.10;53.50;;;;;;5073288;28;20788;-79
2021/10/24 06:28:24;;;;;;;2.03;1.70;;;22.10;53.50;;;;;;5073267;28;20449;-79
2021/10/24 06:30:50;;;;;;;3.10;2.07;;;22.10;53.50;;;;;;5040267;28;20409;-78
2021/10/24 06:34:09;;;;;;;1.60;1.50;;;22.10;53.50;;;;;;5055740;28;20432;-78
2021/10/24 06:36:34;;;;;;;1.90;1.80;;;22.10;53.50;;;;;;5070078;28;20194;-79
2021/10/24 06:42:22;;;;;;;1.70;1.60;;;22.10;53.60;;;;;;5069241;28;20186;-79
2021/10/24 06:44:48;;;;;;;1.73;1.57;;;22.00;53.50;;;;;;5055767;28;20414;-78
2021/10/24 06:47:14;;;;;;;2.30;2.00;;;22.10;53.60;;;;;;5071896;28;20209;-79
2021/10/24 06:49:39;;;;;;;1.93;1.70;;;22.10;53.50;;;;;;5054805;28;20179;-79
2021/10/24 06:55:28;;;;;;;2.20;1.80;;;22.10;53.40;;;;;;5068859;28;20177;-79
2021/10/24 06:57:56;;;;;;;2.40;1.90;;;22.10;53.50;;;;;;5071962;28;20461;-79
2021/10/24 07:00:24;;;;;;;2.27;2.00;;;22.10;53.40;;;;;;5053694;28;20444;-79
2021/10/24 07:02:50;;;;;;;4.17;2.53;;;22.10;53.30;;;;;;5071414;28;20500;-80
2021/10/24 07:05:16;;;;;;;3.43;2.27;;;22.10;53.30;;;;;;5071857;28;20409;-78
2021/10/24 07:07:43;;;;;;;2.20;2.00;;;22.10;53.30;;;;;;5054064;28;20440;-79
2021/10/24 07:10:10;;;;;;;2.93;2.63;;;22.10;53.20;;;;;;5055149;28;20405;-78
2021/10/24 07:12:36;;;;;;;2.60;2.10;;;22.10;53.20;;;;;;5054149;28;20474;-78
2021/10/24 07:15:08;;;;;;;3.47;2.80;;;22.10;53.20;;;;;;5070839;28;20422;-78
2021/10/24 07:17:33;;;;;;;3.13;2.53;;;22.10;53.20;;;;;;5054255;28;20485;-78
2021/10/24 07:19:59;;;;;;;2.67;2.47;;;22.10;53.20;;;;;;5071890;28;20460;-78
2021/10/24 07:22:26;;;;;;;3.10;2.47;;;22.10;53.10;;;;;;5038022;28;20501;-79
2021/10/24 07:24:51;;;;;;;3.93;2.50;;;22.10;53.10;;;;;;5070937;28;20258;-79
2021/10/24 07:27:18;;;;;;;6.80;2.93;;;22.10;53.10;;;;;;5054453;28;20422;-79
2021/10/24 07:29:43;;;;;;;3.40;3.00;;;22.10;53.10;;;;;;5053999;28;20417;-79
2021/10/24 07:32:09;;;;;;;4.30;2.60;;;22.10;53.10;;;;;;5071399;28;20456;-79
2021/10/24 07:34:35;;;;;;;4.63;2.70;;;22.10;53.10;;;;;;5054264;28;20186;-79
2021/10/24 07:37:01;;;;;;;3.87;3.57;;;22.10;53.20;;;;;;5046853;28;20190;-79
2021/10/24 07:39:27;;;;;;;3.33;2.67;;;22.10;53.20;;;;;;5053836;28;20457;-79
2021/10/24 07:41:53;;;;;;;4.77;2.77;;;22.10;53.20;;;;;;5070478;28;20425;-79
2021/10/24 07:44:19;;;;;;;2.53;2.30;;;22.10;53.20;;;;;;5071851;28;20265;-79
2021/10/24 07:46:45;;;;;;;2.70;2.50;;;22.10;53.20;;;;;;5054025;28;20178;-79
2021/10/24 07:49:12;;;;;;;3.27;2.37;;;22.10;53.20;;;;;;5070423;28;20451;-79
2021/10/24 07:51:41;;;;;;;3.23;2.93;;;22.10;53.30;;;;;;5054811;28;20445;-80
2021/10/24 07:54:07;;;;;;;3.47;3.03;;;22.10;53.80;;;;;;5053316;28;20426;-79
2021/10/24 07:56:33;;;;;;;3.40;2.73;;;22.10;53.30;;;;;;5052483;28;20417;-80
2021/10/24 07:59:05;;;;;;;3.50;2.53;;;22.10;53.30;;;;;;5051338;28;20229;-80
2021/10/24 08:01:35;;;;;;;3.00;2.80;;;22.10;53.30;;;;;;5051444;28;20410;-80
2021/10/24 08:04:01;;;;;;;3.23;2.67;;;22.10;53.20;;;;;;5051710;28;20413;-80
2021/10/24 08:06:28;;;;;;;2.27;2.07;;;22.10;53.20;;;;;;5069455;28;20409;-80
2021/10/24 08:08:53;;;;;;;3.57;2.40;;;22.20;53.30;;;;;;5069336;28;20420;-80
2021/10/24 08:11:19;;;;;;;3.40;2.40;;;22.20;53.30;;;;;;5068889;28;20413;-81
2021/10/24 08:17:08;;;;;;;2.43;2.10;;;22.20;53.20;;;;;;5069811;28;20181;-80
2021/10/24 08:19:37;;;;;;;2.00;1.80;;;22.20;53.90;;;;;;5051316;28;20456;-81
2021/10/24 08:22:04;;;;;;;2.83;2.50;;;22.20;53.30;;;;;;5049773;28;20509;-81
2021/10/24 08:24:30;;;;;;;2.37;2.17;;;22.20;53.30;;;;;;5050185;28;20422;-81
2021/10/24 08:26:56;;;;;;;2.90;2.50;;;22.20;53.30;;;;;;5050331;28;20786;-81
2021/10/24 08:29:27;;;;;;;3.50;2.33;;;22.20;53.30;;;;;;5051654;28;20249;-81
2021/10/24 08:31:54;;;;;;;3.53;2.10;;;22.30;53.30;;;;;;5069681;28;20186;-79
2021/10/24 08:34:23;;;;;;;2.63;2.43;;;22.30;53.30;;;;;;5052104;28;20422;-79
2021/10/24 08:36:49;;;;;;;3.30;2.77;;;22.30;53.30;;;;;;5051862;28;20417;-81
2021/10/24 08:39:15;;;;;;;3.03;2.33;;;22.30;53.20;;;;;;5052294;28;20472;-79
2021/10/24 08:45:06;;;;;;;2.73;2.03;;;22.30;53.20;;;;;;5070242;28;20157;-79
2021/10/24 08:47:32;;;;;;;4.33;3.13;;;22.30;53.30;;;;;;5052015;28;20477;-80
2021/10/24 08:49:58;;;;;;;2.87;2.67;;;22.30;53.30;;;;;;5053002;28;20413;-79
2021/10/24 08:52:25;;;;;;;3.30;2.97;;;22.30;53.30;;;;;;5070338;28;20417;-78
2021/10/24 08:54:53;;;;;;;2.50;2.27;;;22.30;53.20;;;;;;5052479;28;20417;-78
2021/10/24 08:57:24;;;;;;;2.60;2.30;;;22.30;53.20;;;;;;5053273;28;20414;-80
2021/10/24 08:59:50;;;;;;;3.23;2.90;;;22.30;53.20;;;;;;5071712;28;20465;-80
2021/10/24 09:02:16;;;;;;;2.33;2.13;;;22.30;53.20;;;;;;5071548;28;20413;-81
2021/10/24 09:04:53;;;;;;;3.90;2.13;;;22.30;53.20;;;;;;5071508;28;20931;-81
2021/10/24 09:07:20;;;;;;;2.30;2.10;;;22.30;53.20;;;;;;5053178;28;20169;-81
2021/10/24 09:09:53;;;;;;;2.53;2.20;;;22.30;53.20;;;;;;5053655;28;20421;-81
2021/10/24 09:12:19;;;;;;;2.90;2.30;;;22.30;53.20;;;;;;5070451;28;20401;-81
2021/10/24 09:18:11;;;;;;;3.43;2.20;;;22.30;53.10;;;;;;5071127;28;20452;-80
2021/10/24 09:20:37;;;;;;;2.53;2.33;;;22.30;53.20;;;;;;5070499;28;20413;-81
2021/10/24 09:26:27;;;;;;;2.93;2.37;;;22.30;53.10;;;;;;5071341;28;20194;-81
2021/10/24 09:29:12;;;;;;;2.73;2.13;;;22.30;53.20;;;;;;5052815;28;20524;-81
2021/10/24 09:31:40;;;;;;;2.40;2.13;;;22.30;53.20;;;;;;5052689;28;20421;-81
2021/10/24 09:34:26;;;;;;;3.10;2.07;;;22.30;53.20;;;;;;5070205;28;20409;-80
2021/10/24 09:40:24;;;;;;;2.13;1.93;;;22.30;53.20;;;;;;5069108;28;20381;-81
2021/10/24 09:43:13;;;;;;;2.50;2.30;;;22.30;53.20;;;;;;5069027;28;20409;-81
2021/10/24 09:45:43;;;;;;;2.47;2.10;;;22.30;53.20;;;;;;5069042;28;20393;-81
2021/10/24 09:48:12;;;;;;;2.23;2.03;;;22.30;53.20;;;;;;5054842;28;20441;-81
2021/10/24 09:50:46;;;;;;;2.60;2.27;;;22.30;53.20;;;;;;5072366;28;20401;-81
2021/10/24 09:53:30;;;;;;;2.20;2.00;;;22.30;53.20;;;;;;5035459;28;20422;-81
2021/10/24 09:56:00;;;;;;;2.60;2.37;;;22.30;53.80;;;;;;5035900;28;20401;-81
2021/10/24 09:58:32;;;;;;;2.80;2.50;;;22.30;53.20;;;;;;5052406;28;20523;-81
2021/10/24 10:01:10;;;;;;;3.10;2.30;;;22.30;53.20;;;;;;5055627;28;20409;-81
2021/10/24 10:03:37;;;;;;;2.47;2.27;;;22.30;53.10;;;;;;5073350;28;20386;-80
2021/10/24 10:06:09;;;;;;;2.50;2.17;;;22.30;53.20;;;;;;5055429;28;20410;-81
2021/10/24 10:08:37;;;;;;;3.00;2.17;;;22.30;53.10;;;;;;5055392;28;20444;-81
2021/10/24 10:11:26;;;;;;;2.17;1.87;;;22.30;53.10;;;;;;5073262;28;20406;-81
2021/10/24 10:14:07;;;;;;;3.10;2.07;;;22.40;53.20;;;;;;5072185;28;20448;-81
2021/10/24 10:16:39;;;;;;;2.30;2.10;;;22.40;53.20;;;;;;5055348;28;20413;-81
2021/10/24 10:19:09;;;;;;;3.90;2.23;;;22.30;53.10;;;;;;5072742;28;20434;-81
2021/10/24 10:21:49;;;;;;;2.33;2.13;;;22.30;53.20;;;;;;5072474;28;20394;-81
2021/10/24 10:24:33;;;;;;;2.37;2.17;;;22.40;53.20;;;;;;5072727;28;20405;-80
2021/10/24 10:27:00;;;;;;;2.20;1.93;;;22.40;53.20;;;;;;5054562;28;20413;-81
2021/10/24 10:29:49;;;;;;;2.20;2.00;;;22.30;53.10;;;;;;5056097;28;20420;-80
2021/10/24 10:38:45;;;;;;;2.23;2.10;;;22.40;53.20;;;;;;5072729;28;20452;-81
2021/10/24 10:41:34;;;;;;;2.33;2.13;;;22.30;53.20;;;;;;5072526;28;20417;-81
2021/10/24 10:50:56;;;;;;;2.77;2.27;;;22.30;53.20;;;;;;5064238;28;20445;-81
2021/10/24 10:53:56;;;;;;;2.67;2.00;;;22.30;53.30;;;;;;5055052;28;20442;-81
2021/10/24 10:56:37;;;;;;;2.50;2.30;;;22.30;53.20;;;;;;5072195;28;20414;-81
2021/10/24 10:59:06;;;;;;;2.30;1.90;;;22.30;53.30;;;;;;5054059;28;20460;-81
2021/10/24 11:05:09;;;;;;;2.17;1.93;;;22.30;53.20;;;;;;5036260;28;20426;-81
2021/10/24 11:07:41;;;;;;;2.53;2.33;;;22.30;53.30;;;;;;5072740;28;20402;-81
2021/10/24 11:10:38;;;;;;;3.80;2.73;;;22.30;53.30;;;;;;5071525;28;20468;-81
2021/10/24 11:13:26;;;;;;;2.63;1.93;;;22.30;53.20;;;;;;5054215;28;20397;-80
2021/10/24 11:16:17;;;;;;;2.67;2.10;;;22.30;53.20;;;;;;5054919;28;20424;-80
2021/10/24 11:22:25;;;;;;;2.53;1.77;;;22.30;53.10;;;;;;4992078;28;20404;-81
2021/10/24 11:38:42;;;;;;;2.97;2.20;;;22.30;53.00;;;;;;4973412;29;20410;-78
2021/10/24 11:41:27;;;;;;;2.30;1.93;;;22.20;52.50;;;;;;4954649;29;20434;-79
2021/10/24 11:44:14;;;;;;;2.60;1.97;;;22.20;52.30;;;;;;4954655;29;20502;-78
2021/10/24 12:00:55;;;;;;;2.10;1.70;;;22.00;51.30;;;;;;4913552;29;20516;-80
2021/10/24 12:03:28;;;;;;;5.47;1.63;;;22.00;51.10;;;;;;4913542;29;20455;-80
2021/10/24 12:06:00;;;;;;;6.60;1.90;;;22.00;51.40;;;;;;4930827;29;20459;-81
2021/10/24 12:09:13;;;;;;;1.70;1.50;;;22.00;50.70;;;;;;4933004;29;20438;-80
2021/10/24 12:11:45;;;;;;;2.33;1.97;;;22.00;50.50;;;;;;4890739;29;20430;-81
2021/10/24 12:21:29;;;;;;;3.03;2.10;;;21.90;50.20;;;;;;4919348;29;20479;-79
2021/10/24 12:24:36;;;;;;;2.87;1.47;;;21.80;50.10;;;;;;4917846;29;20417;-80
2021/10/24 12:27:39;;;;;;;1.80;1.40;;;21.80;49.90;;;;;;4910881;29;20519;-80
2021/10/24 12:30:33;;;;;;;3.63;1.83;;;21.80;50.00;;;;;;4908310;29;20426;-79
2021/10/24 12:33:46;;;;;;;2.50;1.63;;;21.80;50.00;;;;;;4927885;29;20449;-80
2021/10/24 12:39:46;;;;;;;2.60;1.77;;;21.80;49.60;;;;;;4938007;28;20463;-80
2021/10/24 12:42:25;;;;;;;3.00;1.80;;;21.80;49.50;;;;;;4936995;29;20418;-80
2021/10/24 12:52:31;;;;;;;2.60;1.30;;;21.80;49.40;;;;;;4871884;29;21050;-80
2021/10/24 12:55:27;;;;;;;3.03;1.77;;;21.70;49.20;;;;;;5014358;28;20464;-79
2021/10/24 13:01:47;;;;;;;2.93;1.43;;;21.70;48.60;;;;;;4995189;28;20470;-80
2021/10/24 13:04:17;;;;;;;3.90;1.93;;;21.70;48.50;;;;;;4994439;28;20479;-80
2021/10/24 13:06:47;;;;;;;2.47;1.47;;;21.60;48.20;;;;;;4994536;28;20429;-80
2021/10/24 13:09:18;;;;;;;3.00;1.80;;;21.70;48.20;;;;;;4962331;28;20479;-80
2021/10/24 13:14:52;;;;;;;2.80;1.47;;;21.70;48.20;;;;;;4955876;29;20410;-79
2021/10/24 13:24:16;;;;;;;3.03;1.30;;;21.70;48.10;;;;;;4940876;29;20495;-79
2021/10/24 13:26:51;;;;;;;2.27;1.37;;;21.60;48.10;;;;;;4962049;29;20477;-79
2021/10/24 13:42:37;;;;;;;2.07;1.30;;;21.70;47.90;;;;;;4979734;29;20357;-80
2021/10/24 13:48:51;;;;;;;2.93;1.47;;;21.60;47.90;;;;;;5037511;28;20436;-80
2021/10/24 13:51:50;;;;;;;;;;;;;;;;;;;;;
2021/10/24 14:13:51;;;;;;;2.53;1.80;;;21.60;48.50;;;;;;4996549;28;20978;-79
2021/10/24 14:22:56;;;;;;;3.03;1.60;;;21.70;48.30;;;;;;4998458;28;20373;-80
2021/10/24 14:29:47;;;;;;;2.10;1.70;;;21.60;48.40;;;;;;4998420;28;20392;-79
2021/10/24 14:36:07;;;;;;;3.27;1.80;;;21.60;48.40;;;;;;4941376;28;20368;-79
2021/10/24 14:39:14;;;;;;;3.43;1.63;;;21.60;48.30;;;;;;4911156;29;20488;-79
2021/10/24 14:42:06;;;;;;;;;;;;;;;;;;;;;
2021/10/24 14:48:44;;;;;;;4.07;1.77;;;21.60;48.40;;;;;;4977973;29;20417;-80
2021/10/24 14:51:51;;;;;;;5.33;1.60;;;21.60;48.40;;;;;;4918511;29;20417;-81
2021/10/24 14:54:17;;;;;;;2.00;1.63;;;21.60;48.50;;;;;;4903816;29;20512;-81
2021/10/24 14:56:53;;;;;;;2.87;1.53;;;21.60;48.40;;;;;;4903567;29;20413;-81
2021/10/24 14:59:21;;;;;;;2.00;1.50;;;21.60;48.30;;;;;;4919402;29;20460;-81
2021/10/24 15:01:57;;;;;;;2.57;1.50;;;21.60;48.30;;;;;;4903743;29;20441;-81
2021/10/24 15:08:30;;;;;;;1.70;1.50;;;21.60;48.30;;;;;;4863647;29;20426;-81
2021/10/24 15:11:10;;;;;;;1.90;1.60;;;21.70;48.30;;;;;;4819281;29;20437;-80
2021/10/24 15:17:10;;;;;;;2.17;1.50;;;21.60;48.10;;;;;;4842409;29;20442;-81
2021/10/24 15:22:35;;;;;;;2.53;1.60;;;21.60;48.20;;;;;;4863171;29;20449;-81
2021/10/24 15:25:27;;;;;;;2.03;1.37;;;21.60;48.20;;;;;;4886148;29;20421;-80
2021/10/24 15:28:14;;;;;;;1.83;1.67;;;21.60;48.20;;;;;;4972998;28;20415;-81
2021/10/24 15:30:41;;;;;;;2.77;1.93;;;21.60;48.20;;;;;;4998553;28;20433;-80
2021/10/24 15:33:12;;;;;;;2.23;1.80;;;21.60;48.10;;;;;;4998402;28;20428;-80
2021/10/24 15:35:45;;;;;;;2.23;1.90;;;21.60;47.80;;;;;;4997970;28;20424;-80
2021/10/24 15:42:21;;;;;;;2.20;1.90;;;21.60;47.80;;;;;;4995029;28;20447;-80
2021/10/24 15:44:55;;;;;;;3.10;2.30;;;21.60;47.80;;;;;;4994458;28;20398;-80
2021/10/24 15:48:03;;;;;;;14.50;3.63;;;21.60;47.60;;;;;;4979791;28;20421;-81
2021/10/24 16:00:44;;;;;;;2.93;2.17;;;21.50;47.20;;;;;;4918572;29;20420;-81
2021/10/24 16:03:27;;;;;;;;;;;;;;;;;;;;;
2021/10/24 16:20:10;;;;;;;2.67;1.97;;;21.50;48.00;;;;;;4880029;29;21047;-81
2021/10/24 16:25:29;;;;;;;3.60;2.33;;;21.50;48.30;;;;;;4880375;29;20434;-81
2021/10/24 16:31:30;;;;;;;2.40;1.77;;;21.50;48.40;;;;;;4955896;29;20446;-80
2021/10/24 16:34:02;;;;;;;2.60;1.97;;;21.50;48.50;;;;;;4939357;29;20426;-81
2021/10/24 16:36:46;;;;;;;2.20;1.40;;;21.50;48.60;;;;;;4938487;29;20423;-81
2021/10/24 16:39:17;;;;;;;4.00;2.10;;;21.50;48.60;;;;;;4938836;29;20464;-80
2021/10/24 16:41:43;;;;;;;3.90;2.03;;;21.50;48.50;;;;;;4955572;29;20920;-80
2021/10/24 16:44:25;;;;;;;;;;;;;;;;;;;;;
2021/10/24 17:09:48;;;;;;;2.07;1.60;;;21.50;49.00;;;;;;4861755;29;20437;-81
2021/10/24 17:12:20;;;;;;;3.67;1.50;;;21.50;49.10;;;;;;4861557;29;20403;-81
2021/10/24 17:15:14;;;;;;;3.83;1.93;;;21.50;49.10;;;;;;4862588;29;20412;-81